createdAt,value
2023-03-22T00:03:04.840Z,100318.69
2023-03-22T00:06:13.638Z,100307.97
2023-03-22T00:09:21.813Z,100314.72
2023-03-22T00:12:37.809Z,100312.38
2023-03-22T00:15:47.087Z,100316.72
2023-03-22T00:19:02.839Z,100304.16
2023-03-22T00:22:11.827Z,100308.25
2023-03-22T00:25:20.414Z,100308.03
2023-03-22T00:28:28.800Z,100310.69
2023-03-22T00:31:37.502Z,100306.69
2023-03-22T00:35:01.832Z,100312.06
2023-03-22T00:38:03.801Z,100308.91
2023-03-22T00:41:23.835Z,100307.87
2023-03-22T00:44:31.832Z,100309.00
2023-03-22T00:47:40.470Z,100314.13
2023-03-22T00:50:48.832Z,100309.88
2023-03-22T00:54:03.829Z,100315.56
2023-03-22T00:57:12.382Z,100311.87
2023-03-22T01:00:20.791Z,100308.69
2023-03-22T01:07:39.809Z,100309.56
2023-03-22T01:10:55.833Z,100315.72
2023-03-22T01:14:04.495Z,100309.62
2023-03-22T01:17:18.852Z,100310.44
2023-03-22T01:20:33.837Z,100285.13
2023-03-22T01:23:35.791Z,100300.34
2023-03-22T01:26:50.814Z,100302.50
2023-03-22T01:29:58.831Z,100284.69
2023-03-22T01:33:20.802Z,100292.19
2023-03-22T01:36:36.879Z,100284.47
2023-03-22T01:39:38.788Z,100277.06
2023-03-22T01:42:53.856Z,100279.97
2023-03-22T01:46:02.511Z,100278.94
2023-03-22T01:49:23.886Z,100274.44
2023-03-22T01:52:32.827Z,100255.25
2023-03-22T01:55:42.366Z,100274.16
2023-03-22T01:58:50.842Z,100278.97
2023-03-22T02:02:06.842Z,100295.78
2023-03-22T02:05:15.660Z,100302.19
2023-03-22T02:08:30.857Z,100302.72
2023-03-22T02:11:45.843Z,100306.47
2023-03-22T02:15:04.369Z,100299.50
2023-03-22T02:18:52.838Z,100294.47
2023-03-22T02:22:25.844Z,100295.78
2023-03-22T02:26:06.842Z,100300.06
2023-03-22T02:29:43.848Z,100307.50
2023-03-22T02:33:33.820Z,100305.41
2023-03-22T02:36:55.751Z,100305.37
2023-03-22T02:40:16.810Z,100306.47
2023-03-22T02:43:35.837Z,100299.50
2023-03-22T02:46:54.823Z,100304.31
2023-03-22T02:50:48.831Z,100290.16
2023-03-22T02:54:17.839Z,100310.69
2023-03-22T02:57:33.427Z,100317.88
2023-03-22T03:00:49.885Z,100317.88
2023-03-22T03:04:09.850Z,100317.63
2023-03-22T03:07:24.475Z,100314.97
2023-03-22T03:10:41.281Z,100321.87
2023-03-22T03:13:53.853Z,100318.69
2023-03-22T03:17:11.226Z,100322.16
2023-03-22T03:20:26.863Z,100322.97
2023-03-22T03:24:03.233Z,100313.91
2023-03-22T03:27:34.836Z,100312.31
2023-03-22T03:30:59.450Z,100306.47
2023-03-22T03:34:25.842Z,100278.72
2023-03-22T03:37:39.549Z,100304.03
2023-03-22T03:41:04.832Z,100313.38
2023-03-22T03:44:21.825Z,100316.59
2023-03-22T03:47:25.178Z,100320.31
2023-03-22T03:50:41.079Z,100311.25
2023-03-22T03:53:49.529Z,100323.00
2023-03-22T03:56:57.825Z,100331.28
2023-03-22T04:00:07.196Z,100320.06
2023-03-22T04:03:22.834Z,100313.09
2023-03-22T04:06:31.422Z,100325.13
2023-03-22T04:09:42.816Z,100329.41
2023-03-22T04:12:57.865Z,100325.66
2023-03-22T04:16:05.840Z,100327.28
2023-03-22T04:19:14.789Z,100329.66
2023-03-22T04:22:30.821Z,100333.38
2023-03-22T04:25:32.784Z,100322.47
2023-03-22T04:28:47.824Z,100312.31
2023-03-22T04:32:02.851Z,100319.25
2023-03-22T04:35:11.410Z,100327.75
2023-03-22T04:38:25.880Z,100329.09
2023-03-22T04:41:41.885Z,100277.06
2023-03-22T04:44:44.012Z,100343.50
2023-03-22T04:47:58.881Z,100348.56
2023-03-22T04:51:15.848Z,100330.16
2023-03-22T04:54:31.835Z,100336.56
2023-03-22T04:57:46.857Z,100331.50
2023-03-22T05:00:55.462Z,100342.66
2023-03-22T05:04:10.884Z,100353.88
2023-03-22T05:07:12.829Z,100349.31
2023-03-22T05:10:27.817Z,100352.22
2023-03-22T05:13:37.810Z,100349.03
2023-03-22T05:16:52.842Z,100349.84
2023-03-22T05:20:00.864Z,100333.56
2023-03-22T05:23:16.856Z,100354.44
2023-03-22T05:26:32.846Z,100360.84
2023-03-22T05:29:48.830Z,100373.66
2023-03-22T05:33:02.478Z,100374.22
2023-03-22T05:36:27.823Z,100366.50
2023-03-22T05:39:36.564Z,100369.19
2023-03-22T05:42:44.828Z,100374.25
2023-03-22T05:45:59.849Z,100368.63
2023-03-22T05:49:10.065Z,100375.03
2023-03-22T05:52:26.869Z,100381.66
2023-03-22T05:55:35.503Z,100388.12
2023-03-22T05:58:44.868Z,100379.72
2023-03-22T06:01:59.889Z,100385.13
2023-03-22T06:05:16.846Z,100382.50
2023-03-22T06:08:26.708Z,100387.28
2023-03-22T06:11:35.773Z,100397.41
2023-03-22T06:14:50.848Z,100399.50
2023-03-22T06:18:05.859Z,100397.03
2023-03-22T06:21:20.828Z,100397.25
2023-03-22T06:24:29.850Z,100406.31
2023-03-22T06:27:44.841Z,100404.59
2023-03-22T06:30:53.530Z,100396.16
2023-03-22T06:34:01.823Z,100388.59
2023-03-22T06:37:17.136Z,100396.28
2023-03-22T06:40:25.841Z,100401.72
2023-03-22T06:43:41.883Z,100405.63
2023-03-22T06:46:50.819Z,100408.41
2023-03-22T06:50:05.894Z,100419.16
2023-03-22T06:53:14.608Z,100413.69
2023-03-22T06:56:22.835Z,100405.25
2023-03-22T06:59:31.789Z,100402.75
2023-03-22T07:02:40.845Z,100406.28
2023-03-22T07:05:55.857Z,100412.81
2023-03-22T07:09:04.664Z,100418.69
2023-03-22T07:12:19.834Z,100423.25
2023-03-22T07:15:36.900Z,100419.66
2023-03-22T07:18:38.942Z,100399.03
2023-03-22T07:21:53.862Z,100405.44
2023-03-22T07:24:58.853Z,100412.22
2023-03-22T07:28:14.885Z,100425.34
2023-03-22T07:31:29.854Z,100421.19
2023-03-22T07:34:38.861Z,100429.34
2023-03-22T07:37:54.122Z,100417.28
2023-03-22T07:41:02.847Z,100424.97
2023-03-22T07:44:18.503Z,100430.56
2023-03-22T07:47:40.357Z,100429.56
2023-03-22T07:50:56.864Z,100417.91
2023-03-22T07:53:58.960Z,100415.53
2023-03-22T07:57:15.759Z,100416.81
2023-03-22T08:00:18.148Z,100433.19
2023-03-22T08:03:32.995Z,100406.97
2023-03-22T08:06:50.101Z,100406.13
2023-03-22T08:09:59.347Z,100426.22
2023-03-22T08:13:07.628Z,100424.47
2023-03-22T08:16:22.883Z,100418.84
2023-03-22T08:19:24.827Z,100411.91
2023-03-22T08:22:39.868Z,100414.25
2023-03-22T08:25:48.895Z,100411.84
2023-03-22T08:29:03.968Z,100417.06
2023-03-22T08:32:19.880Z,100411.84
2023-03-22T08:35:36.694Z,100412.12
2023-03-22T08:38:52.869Z,100414.91
2023-03-22T08:42:01.611Z,100415.75
2023-03-22T08:45:17.851Z,100424.88
2023-03-22T08:48:32.967Z,100427.19
2023-03-22T08:51:42.078Z,100432.72
2023-03-22T08:54:58.149Z,100432.56
2023-03-22T08:58:07.857Z,100431.28
2023-03-22T09:01:17.690Z,100436.94
2023-03-22T09:04:32.885Z,100436.94
2023-03-22T09:07:34.906Z,100432.09
2023-03-22T09:10:50.013Z,100432.91
2023-03-22T09:14:09.046Z,100425.28
2023-03-22T09:17:22.606Z,100428.09
2023-03-22T09:20:38.215Z,100432.78
2023-03-22T09:23:46.829Z,100442.66
2023-03-22T09:26:58.095Z,100431.72
2023-03-22T09:45:47.854Z,100409.13
2023-03-22T09:48:58.600Z,100409.28
2023-03-22T09:52:23.699Z,100405.00
2023-03-22T09:55:57.302Z,100408.34
2023-03-22T09:59:05.873Z,100408.03
2023-03-22T10:02:39.956Z,100418.19
2023-03-22T10:10:13.883Z,100406.25
2023-03-22T10:13:35.026Z,100411.19
2023-03-22T10:16:55.379Z,100410.09
2023-03-22T10:20:25.880Z,100401.53
2023-03-22T10:23:39.373Z,100409.94
2023-03-22T10:26:54.987Z,100405.47
2023-03-22T10:30:30.151Z,100406.91
2023-03-22T10:34:06.266Z,100404.22
2023-03-22T10:37:26.892Z,100400.38
2023-03-22T10:40:38.942Z,100401.66
2023-03-22T10:44:00.584Z,100404.06
2023-03-22T10:47:17.933Z,100407.38
2023-03-22T10:50:34.003Z,100400.84
2023-03-22T10:53:47.865Z,100398.81
2023-03-22T10:57:02.899Z,100399.75
2023-03-22T11:00:12.894Z,100396.87
2023-03-22T11:03:36.484Z,100392.28
2023-03-22T11:06:58.875Z,100387.34
2023-03-22T11:10:09.548Z,100387.31
2023-03-22T11:13:26.951Z,100385.25
2023-03-22T11:16:53.939Z,100375.69
2023-03-22T11:20:00.301Z,100375.44
2023-03-22T11:23:19.886Z,100370.94
2023-03-22T11:31:05.885Z,100362.06
2023-03-22T11:34:24.883Z,100358.56
2023-03-22T11:37:27.342Z,100360.91
2023-03-22T11:40:43.277Z,100356.28
2023-03-22T11:44:08.881Z,100349.25
2023-03-22T11:47:23.887Z,100345.63
2023-03-22T11:50:36.896Z,100343.38
2023-03-22T11:53:54.881Z,100348.38
2023-03-22T11:56:59.896Z,100337.84
2023-03-22T12:00:28.892Z,100345.94
2023-03-22T12:03:39.448Z,100331.53
2023-03-22T12:07:01.900Z,100335.37
2023-03-22T12:10:43.900Z,100329.16
2023-03-22T12:14:11.897Z,100347.69
2023-03-22T12:17:26.822Z,100349.16
2023-03-22T12:21:01.961Z,100349.66
2023-03-22T12:24:34.911Z,100354.91
2023-03-22T12:27:46.975Z,100291.87
2023-03-22T12:31:02.970Z,100349.69
2023-03-22T12:34:21.629Z,100343.66
2023-03-22T12:37:37.906Z,100343.81
2023-03-22T12:40:54.947Z,100339.03
2023-03-22T12:44:55.532Z,100333.28
2023-03-22T12:49:10.910Z,100337.72
2023-03-22T12:52:50.921Z,100324.50
2023-03-22T12:56:09.830Z,100301.47
2023-03-22T12:59:30.472Z,100320.84
2023-03-22T13:02:41.990Z,100314.94
2023-03-22T13:06:01.282Z,100316.84
2023-03-22T13:09:45.909Z,100310.91
2023-03-22T13:13:24.970Z,100298.03
2023-03-22T13:17:12.923Z,100293.19
2023-03-22T13:20:24.801Z,100298.50
2023-03-22T13:23:40.109Z,100292.84
2023-03-22T13:26:55.997Z,100288.63
2023-03-22T13:30:32.913Z,100285.78
2023-03-22T13:33:41.889Z,100289.56
2023-03-22T13:37:04.175Z,100288.09
2023-03-22T13:40:27.222Z,100286.78
2023-03-22T13:43:41.734Z,100288.84
2023-03-22T13:46:58.908Z,100279.62
2023-03-22T13:50:25.448Z,100289.56
2023-03-22T13:53:36.953Z,100279.50
2023-03-22T13:57:01.999Z,100277.63
2023-03-22T14:00:40.443Z,100265.09
2023-03-22T14:03:53.073Z,100269.25
2023-03-22T14:07:52.939Z,100257.59
2023-03-22T14:11:24.572Z,100246.78
2023-03-22T14:14:38.908Z,100255.88
2023-03-22T14:18:12.980Z,100242.81
2023-03-22T14:21:38.924Z,100258.53
